Big Creek, California
Current Conditions -  °F | °C
As of 7:55 PM on Saturday 25 Oct 2014 (Local Time) from KMMH Reporting Station
Clear Clear  
Wind Chill: 50°   Ceiling: Unl
Heat Index: 50°   Visibility: 10mi
Dew Point: 14°   Wind: 10mph
Humidity: 24%   Direction: 190°S
Pressure: 30.1"   Gusts: 36mph
Location:  37.2°N, 119.24°W
Report Text: KMMH 260255Z AUTO 19009G31KT 120V220 10SM CLR 10/M10 A3010 RMK AO1
Loading
Personal Weather Stations






























Interactive Weather Map
Tropical Storm Tracking
New forecast layout! Learn more

10-Day Weather Forecast

Advertisements
Track Severe Weather on mobile